Time;durP1;ratioP1;P1;durP2;ratioP2;P2;SDS_P1;SDS_P2;PMS_P1;PMS_P2;Temp;Humidity;BMP_temperature;BMP_pressure;BME280_temperature;BME280_humidity;BME280_pressure;Samples;Min_cycle;Max_cycle;Signal;HPM_P1;HPM_P2
2023/08/03 00:00:45;;;;;;;13.93;4.63;;;13.70;87.90;;;;;;5070076;28;20067;-67
2023/08/03 00:03:12;;;;;;;15.93;4.63;;;13.80;87.90;;;;;;5069246;28;20037;-68
2023/08/03 00:05:40;;;;;;;14.13;4.15;;;13.80;87.80;;;;;;5071208;28;20463;-67
2023/08/03 00:08:07;;;;;;;8.77;3.65;;;13.80;87.70;;;;;;5071472;28;20056;-67
2023/08/03 00:10:35;;;;;;;14.82;3.97;;;13.90;87.50;;;;;;5053476;28;20482;-67
2023/08/03 00:13:02;;;;;;;11.63;3.22;;;13.90;87.30;;;;;;5071499;28;20115;-66
2023/08/03 00:15:30;;;;;;;12.13;3.72;;;14.00;87.30;;;;;;5071488;28;20112;-67
2023/08/03 00:17:57;;;;;;;14.90;4.18;;;14.10;87.20;;;;;;5053778;28;20024;-67
2023/08/03 00:20:24;;;;;;;8.25;3.00;;;14.10;87.40;;;;;;5075017;28;20037;-67
2023/08/03 00:22:51;;;;;;;16.70;4.03;;;14.20;87.00;;;;;;5056989;28;20385;-66
2023/08/03 00:25:19;;;;;;;9.02;3.20;;;14.30;86.90;;;;;;5075075;28;20032;-67
2023/08/03 00:27:46;;;;;;;9.68;3.20;;;14.40;86.60;;;;;;5040525;28;20082;-67
2023/08/03 00:30:13;;;;;;;9.50;3.00;;;14.50;86.50;;;;;;5074918;28;20086;-66
2023/08/03 00:32:40;;;;;;;9.02;3.00;;;14.60;86.20;;;;;;5057076;28;20556;-67
2023/08/03 00:35:08;;;;;;;14.05;3.17;;;14.60;85.90;;;;;;5074934;28;20028;-67
2023/08/03 00:37:37;;;;;;;8.48;2.85;;;14.70;85.50;;;;;;5074929;28;20059;-67
2023/08/03 00:40:05;;;;;;;10.40;3.00;;;14.70;85.30;;;;;;5074518;28;20486;-66
2023/08/03 00:42:32;;;;;;;9.13;2.95;;;14.80;84.90;;;;;;5074668;28;20513;-66
2023/08/03 00:44:59;;;;;;;8.30;2.70;;;14.90;84.50;;;;;;5074547;28;20050;-67
2023/08/03 00:47:27;;;;;;;10.73;3.00;;;15.00;84.50;;;;;;5072971;28;20025;-67
2023/08/03 00:49:54;;;;;;;12.55;2.83;;;15.00;84.40;;;;;;5074360;28;20033;-67
2023/08/03 00:52:23;;;;;;;7.82;2.45;;;15.20;83.20;;;;;;5074770;28;20416;-66
2023/08/03 00:54:50;;;;;;;9.73;2.38;;;15.30;82.90;;;;;;5074630;28;20225;-67
2023/08/03 00:57:17;;;;;;;8.15;2.13;;;15.30;82.40;;;;;;5056450;28;20077;-67
2023/08/03 00:59:45;;;;;;;6.32;2.10;;;15.40;82.50;;;;;;5074213;28;20035;-69
2023/08/03 04:26:09;;;;;;;10.82;2.35;;;18.10;74.90;;;;;;5068539;28;20572;-71
2023/08/03 04:28:36;;;;;;;10.82;2.65;;;18.10;75.30;;;;;;5074746;28;20451;-68
2023/08/03 04:31:04;;;;;;;13.95;2.72;;;18.00;75.60;;;;;;5074902;28;20402;-69
2023/08/03 04:33:31;;;;;;;9.50;2.25;;;18.00;76.00;;;;;;5074999;28;20033;-69
2023/08/03 04:35:59;;;;;;;9.32;2.70;;;18.10;75.70;;;;;;5074806;28;20063;-67
2023/08/03 04:38:27;;;;;;;13.07;2.63;;;18.00;76.00;;;;;;5074648;28;20037;-67
2023/08/03 04:40:54;;;;;;;16.08;2.85;;;18.00;76.20;;;;;;5074922;28;20051;-67
2023/08/03 04:43:21;;;;;;;10.30;2.35;;;18.00;76.30;;;;;;5074535;28;20032;-67
2023/08/03 04:45:48;;;;;;;11.20;3.25;;;18.00;75.90;;;;;;5073911;28;20162;-66
2023/08/03 04:48:16;;;;;;;10.60;2.80;;;17.90;75.70;;;;;;5070061;28;20044;-67
2023/08/03 04:50:43;;;;;;;13.27;2.30;;;18.00;75.80;;;;;;5072054;28;20032;-66
2023/08/03 04:53:10;;;;;;;7.95;2.38;;;17.90;75.70;;;;;;5072044;28;20039;-67
2023/08/03 04:55:37;;;;;;;14.88;2.50;;;17.90;76.00;;;;;;5071906;28;20043;-65
2023/08/03 04:58:04;;;;;;;8.48;2.42;;;17.90;76.20;;;;;;5071300;28;20036;-64
2023/08/03 05:00:32;;;;;;;12.93;2.40;;;17.90;76.40;;;;;;5071113;28;20032;-65
2023/08/03 05:02:59;;;;;;;17.05;2.67;;;17.90;76.10;;;;;;5071533;28;20482;-65
2023/08/03 05:05:26;;;;;;;11.52;2.70;;;17.80;76.30;;;;;;5071549;28;20029;-65
2023/08/03 05:07:53;;;;;;;7.18;2.55;;;17.90;76.30;;;;;;5070360;28;20390;-63
2023/08/03 05:10:21;;;;;;;9.68;2.58;;;17.80;76.20;;;;;;5070797;28;20062;-64
2023/08/03 05:12:48;;;;;;;21.58;3.97;;;17.90;76.20;;;;;;5071240;28;20378;-65
2023/08/03 05:15:15;;;;;;;6.68;2.20;;;18.00;76.10;;;;;;5071452;28;20037;-64
2023/08/03 05:17:42;;;;;;;9.00;2.35;;;17.90;75.90;;;;;;5071140;28;20047;-63
2023/08/03 05:20:10;;;;;;;8.98;2.42;;;18.00;75.60;;;;;;5069571;28;20068;-64
2023/08/03 05:22:37;;;;;;;11.70;2.33;;;17.90;75.90;;;;;;5056980;28;20091;-65
2023/08/03 05:25:04;;;;;;;12.65;2.80;;;17.90;75.70;;;;;;5070805;28;20060;-64
2023/08/03 05:27:32;;;;;;;9.20;3.00;;;17.80;75.50;;;;;;5068607;28;20036;-67
2023/08/03 05:29:59;;;;;;;7.72;2.65;;;17.80;75.60;;;;;;5071099;28;20087;-63
2023/08/03 05:32:26;;;;;;;9.02;2.80;;;17.80;75.80;;;;;;5070270;28;20048;-66
2023/08/03 05:34:53;;;;;;;10.45;2.95;;;17.80;75.40;;;;;;5068166;28;20067;-63
2023/08/03 05:37:21;;;;;;;8.50;2.53;;;17.80;75.30;;;;;;5069920;28;20046;-63
2023/08/03 05:39:48;;;;;;;10.00;2.80;;;17.80;75.20;;;;;;5069508;28;20120;-64
2023/08/03 05:42:15;;;;;;;10.70;2.80;;;17.80;75.20;;;;;;5071157;28;20097;-64
2023/08/03 05:44:42;;;;;;;7.40;2.80;;;17.80;74.90;;;;;;5068572;28;20060;-64
2023/08/03 05:47:11;;;;;;;11.23;2.63;;;17.80;74.80;;;;;;5070166;28;20499;-64
2023/08/03 05:49:40;;;;;;;12.32;3.55;;;17.70;75.00;;;;;;5069038;28;20048;-63
2023/08/03 05:52:09;;;;;;;12.13;3.33;;;17.70;74.90;;;;;;5068974;28;20109;-64
2023/08/03 05:54:37;;;;;;;9.98;3.28;;;17.70;74.90;;;;;;5051435;28;20033;-64
2023/08/03 05:57:05;;;;;;;9.13;2.80;;;17.70;75.20;;;;;;5068620;28;20032;-63
2023/08/03 05:59:34;;;;;;;8.18;2.60;;;17.70;75.50;;;;;;5068270;28;20064;-63
2023/08/03 06:02:01;;;;;;;6.00;2.65;;;17.70;75.50;;;;;;5050654;28;20555;-64
2023/08/03 06:04:28;;;;;;;8.85;3.20;;;17.70;75.50;;;;;;5060981;28;20094;-65
2023/08/03 06:06:56;;;;;;;10.23;2.88;;;17.70;75.50;;;;;;5072287;28;20032;-66
2023/08/03 06:09:23;;;;;;;9.55;2.70;;;17.70;75.80;;;;;;5068961;28;20048;-66
2023/08/03 06:11:50;;;;;;;7.95;2.58;;;17.70;75.60;;;;;;5069812;28;20047;-65
2023/08/03 06:14:17;;;;;;;8.43;2.50;;;17.70;75.50;;;;;;5068551;28;20498;-65
2023/08/03 06:16:44;;;;;;;10.15;2.30;;;17.70;75.70;;;;;;5069453;28;20045;-65
2023/08/03 06:19:12;;;;;;;12.63;2.63;;;17.70;75.90;;;;;;5050104;28;20114;-64
2023/08/03 06:21:39;;;;;;;10.05;2.45;;;17.60;76.00;;;;;;5062680;28;20358;-65
2023/08/03 06:24:06;;;;;;;5.68;2.42;;;17.60;76.20;;;;;;5069135;28;20033;-66
2023/08/03 06:26:36;;;;;;;6.38;2.30;;;17.50;76.30;;;;;;5068034;28;20070;-65
2023/08/03 06:29:05;;;;;;;10.45;2.63;;;17.50;76.50;;;;;;5067948;28;20569;-67
2023/08/03 06:31:39;;;;;;;7.25;2.63;;;17.50;76.70;;;;;;5069612;28;20491;-66
2023/08/03 06:34:09;;;;;;;12.57;2.35;;;17.50;76.80;;;;;;5067561;28;20509;-67
2023/08/03 06:36:37;;;;;;;10.55;3.35;;;17.50;76.90;;;;;;5069429;28;20064;-65
2023/08/03 06:39:04;;;;;;;13.68;2.75;;;17.40;77.00;;;;;;5084755;28;20108;-65
2023/08/03 06:41:31;;;;;;;9.82;2.63;;;17.40;77.00;;;;;;5069545;28;20044;-64
2023/08/03 06:43:58;;;;;;;10.65;2.90;;;17.40;76.90;;;;;;5068142;28;20048;-64
2023/08/03 06:46:26;;;;;;;11.52;3.00;;;17.40;77.00;;;;;;5067880;28;20051;-65
2023/08/03 06:48:53;;;;;;;8.88;2.42;;;17.30;76.90;;;;;;5069325;28;20071;-64
2023/08/03 06:51:21;;;;;;;7.93;2.67;;;17.30;77.00;;;;;;5087787;28;20123;-66
2023/08/03 06:53:48;;;;;;;11.27;2.80;;;17.30;76.80;;;;;;5081510;28;20074;-67
2023/08/03 06:56:17;;;;;;;9.88;2.55;;;17.30;76.80;;;;;;5067825;28;20055;-67
2023/08/03 06:58:44;;;;;;;11.65;3.10;;;17.30;76.90;;;;;;5069505;28;20028;-67
2023/08/03 07:01:11;;;;;;;7.50;2.45;;;17.30;77.00;;;;;;5068183;28;20032;-65
2023/08/03 07:03:38;;;;;;;8.90;2.50;;;17.20;77.00;;;;;;5063295;28;20037;-65
2023/08/03 07:06:06;;;;;;;10.48;2.92;;;17.20;76.80;;;;;;5061513;28;20028;-65
2023/08/03 07:08:34;;;;;;;8.27;2.72;;;17.20;77.00;;;;;;5068942;28;20163;-66
2023/08/03 07:11:01;;;;;;;9.65;2.90;;;17.20;77.10;;;;;;5068796;28;20095;-65
2023/08/03 07:13:28;;;;;;;9.38;3.08;;;17.10;77.40;;;;;;5069223;28;20036;-65
2023/08/03 07:15:55;;;;;;;8.43;2.63;;;17.10;77.50;;;;;;5069028;28;20125;-64
2023/08/03 07:18:23;;;;;;;7.15;2.25;;;17.10;77.70;;;;;;5068540;28;20513;-65
2023/08/03 07:20:50;;;;;;;4.43;2.33;;;17.10;77.80;;;;;;5068663;28;20056;-64
2023/08/03 07:23:17;;;;;;;9.05;2.75;;;17.00;77.90;;;;;;5068745;28;20033;-66
2023/08/03 07:25:44;;;;;;;11.65;3.13;;;17.00;78.10;;;;;;5068999;28;20453;-65
2023/08/03 07:28:12;;;;;;;11.48;2.88;;;16.90;78.40;;;;;;5069043;28;20536;-64
2023/08/03 07:30:39;;;;;;;9.93;2.50;;;16.90;78.60;;;;;;5073007;28;20040;-63
2023/08/03 07:33:06;;;;;;;6.63;2.90;;;17.00;79.00;;;;;;5067550;28;20051;-63
2023/08/03 07:35:36;;;;;;;9.32;2.60;;;16.90;79.10;;;;;;5071199;28;20041;-64
2023/08/03 07:38:03;;;;;;;9.52;2.33;;;16.90;79.30;;;;;;5081075;28;20039;-64
2023/08/03 07:40:31;;;;;;;9.95;2.60;;;16.90;79.40;;;;;;5071271;28;20040;-64
2023/08/03 07:42:58;;;;;;;9.35;2.35;;;16.90;79.40;;;;;;5071133;28;20028;-65
2023/08/03 07:45:25;;;;;;;10.23;2.97;;;16.80;79.70;;;;;;5072798;28;20039;-66
2023/08/03 07:47:52;;;;;;;9.13;2.92;;;16.80;79.70;;;;;;5071446;28;20105;-65
2023/08/03 07:50:20;;;;;;;6.25;2.50;;;16.80;79.60;;;;;;5066725;28;20041;-65
2023/08/03 07:52:47;;;;;;;7.65;2.58;;;16.80;79.80;;;;;;5072739;28;20360;-64
2023/08/03 07:55:14;;;;;;;7.10;1.98;;;16.80;79.90;;;;;;5069472;28;20036;-64
2023/08/03 07:57:42;;;;;;;7.75;2.80;;;16.80;79.80;;;;;;5072750;28;20033;-64
2023/08/03 08:00:10;;;;;;;8.02;2.28;;;16.80;79.80;;;;;;5073522;28;20037;-64
2023/08/03 08:02:37;;;;;;;6.55;2.55;;;16.70;80.10;;;;;;5093231;28;20035;-67
2023/08/03 08:05:04;;;;;;;11.68;2.72;;;16.70;80.30;;;;;;5085131;28;20032;-72
2023/08/03 08:07:32;;;;;;;11.85;2.85;;;16.70;80.30;;;;;;5068570;28;20430;-73
2023/08/03 08:09:59;;;;;;;12.32;3.08;;;16.70;80.50;;;;;;5071052;28;20473;-73
2023/08/03 08:12:26;;;;;;;10.00;2.60;;;16.70;80.60;;;;;;5071040;28;20036;-73
2023/08/03 08:24:31;;;;;;;9.25;2.85;;;16.70;80.80;;;;;;5067738;28;20425;-73
2023/08/03 08:26:58;;;;;;;5.70;2.40;;;16.60;80.90;;;;;;5071697;28;20459;-73
2023/08/03 08:29:25;;;;;;;5.80;2.28;;;16.70;80.90;;;;;;5077495;28;20045;-73
2023/08/03 08:31:53;;;;;;;9.98;2.70;;;16.70;80.70;;;;;;5072295;28;20052;-68
2023/08/03 08:34:20;;;;;;;8.75;2.28;;;16.70;80.80;;;;;;5066280;28;20112;-72
2023/08/03 08:36:47;;;;;;;10.85;4.35;;;16.70;80.50;;;;;;5066756;28;20115;-74
2023/08/03 08:39:15;;;;;;;9.40;3.08;;;16.70;80.40;;;;;;5067576;28;20086;-71
2023/08/03 08:41:42;;;;;;;142.15;116.65;;;16.80;80.40;;;;;;5068980;28;20446;-73
2023/08/03 08:44:14;;;;;;;34.67;26.15;;;16.80;80.20;;;;;;5069975;28;20547;-73
2023/08/03 08:46:44;;;;;;;206.98;120.78;;;16.90;79.70;;;;;;5069806;28;20086;-72
2023/08/03 08:49:12;;;;;;;52.33;33.65;;;17.00;79.50;;;;;;5067623;28;20495;-66
2023/08/03 08:51:43;;;;;;;37.03;24.65;;;17.10;78.70;;;;;;5070280;28;20040;-67
2023/08/03 08:54:10;;;;;;;30.05;24.50;;;17.10;78.50;;;;;;5070521;28;20049;-65
2023/08/03 08:56:40;;;;;;;123.35;85.25;;;17.20;78.20;;;;;;5067041;28;20033;-70
2023/08/03 08:59:11;;;;;;;107.90;79.88;;;17.20;78.10;;;;;;5068165;28;20422;-69
2023/08/03 09:01:53;;;;;;;139.05;81.32;;;17.30;78.20;;;;;;5066720;28;20033;-72
2023/08/03 09:04:31;;;;;;;9.93;3.30;;;17.30;78.00;;;;;;5068197;28;20237;-73
2023/08/03 09:06:59;;;;;;;11.77;4.45;;;17.20;78.50;;;;;;5068157;28;20111;-70
2023/08/03 09:09:28;;;;;;;8.70;2.88;;;17.20;78.60;;;;;;5035907;28;20135;-70
2023/08/03 09:11:58;;;;;;;6.43;2.20;;;17.20;79.20;;;;;;5065868;28;20044;-70
2023/08/03 09:14:26;;;;;;;8.27;2.35;;;17.10;79.60;;;;;;5062412;28;20519;-70
2023/08/03 09:16:53;;;;;;;9.93;2.60;;;17.10;79.80;;;;;;5051050;28;20032;-70
2023/08/03 09:19:39;;;;;;;9.85;2.75;;;17.00;79.60;;;;;;5068068;28;20036;-70
2023/08/03 09:22:07;;;;;;;7.53;2.42;;;17.00;79.90;;;;;;5052916;28;20131;-70
2023/08/03 09:24:34;;;;;;;6.25;2.65;;;16.90;80.10;;;;;;5069547;28;20440;-70
2023/08/03 09:27:02;;;;;;;7.35;3.05;;;16.90;80.30;;;;;;5069185;28;20044;-70
2023/08/03 09:29:32;;;;;;;7.35;2.88;;;16.80;80.30;;;;;;5070381;28;20449;-82
2023/08/03 09:32:02;;;;;;;;;;;16.80;80.20;;;;;;5067858;28;20458;-65
2023/08/03 09:34:40;;;;;;;13.25;2.30;;;16.80;80.40;;;;;;5061649;28;20270;-64
2023/08/03 09:37:11;;;;;;;9.55;2.92;;;16.70;80.50;;;;;;5063542;28;20390;-63
2023/08/03 09:39:40;;;;;;;11.23;3.00;;;16.70;80.60;;;;;;5046979;28;20066;-64
2023/08/03 09:42:11;;;;;;;6.18;2.20;;;16.70;80.50;;;;;;5066677;28;20040;-63
2023/08/03 09:44:38;;;;;;;;;;;16.70;80.40;;;;;;5070027;28;20112;-65
2023/08/03 09:47:06;;;;;;;9.10;2.50;;;16.60;80.10;;;;;;5074991;28;19912;-64
2023/08/03 09:49:33;;;;;;;9.68;2.40;;;16.60;79.80;;;;;;5060470;28;20044;-64
2023/08/03 09:52:04;;;;;;;7.03;2.28;;;16.60;79.50;;;;;;5068048;28;20040;-63
2023/08/03 09:54:55;;;;;;;11.38;2.60;;;16.60;79.60;;;;;;5078202;28;20064;-63
2023/08/03 09:57:24;;;;;;;12.70;2.72;;;16.50;79.50;;;;;;5067423;28;20036;-64
2023/08/03 09:59:58;;;;;;;7.57;2.60;;;16.50;79.50;;;;;;5068915;28;20031;-65
2023/08/03 10:02:27;;;;;;;7.00;2.80;;;16.50;79.40;;;;;;5052681;28;20032;-64
2023/08/03 10:04:57;;;;;;;9.07;3.05;;;16.50;79.40;;;;;;5081009;28;20040;-64
2023/08/03 10:07:26;;;;;;;7.53;2.85;;;16.50;79.50;;;;;;5049085;28;20375;-64
2023/08/03 10:09:56;;;;;;;9.15;2.47;;;16.50;79.40;;;;;;5084102;28;20398;-64
2023/08/03 10:12:30;;;;;;;14.95;2.85;;;16.40;79.50;;;;;;5063225;28;20090;-63
2023/08/03 10:14:57;;;;;;;8.25;2.53;;;16.40;79.60;;;;;;5067712;28;20048;-63
2023/08/03 10:17:25;;;;;;;4.93;2.22;;;16.40;79.50;;;;;;5066592;28;20040;-63
2023/08/03 10:19:52;;;;;;;10.98;3.20;;;16.40;79.60;;;;;;5082024;28;20037;-63
2023/08/03 10:22:19;;;;;;;14.77;3.15;;;16.40;79.50;;;;;;5049772;28;20037;-64
2023/08/03 10:25:18;;;;;;;11.10;3.25;;;16.30;79.50;;;;;;5066284;28;20734;-64
2023/08/03 10:28:13;;;;;;;9.20;2.80;;;16.30;79.60;;;;;;5065725;28;20037;-63
2023/08/03 10:31:11;;;;;;;6.05;2.72;;;16.30;79.20;;;;;;5061541;28;20044;-65
2023/08/03 10:33:50;;;;;;;11.07;3.28;;;16.30;79.10;;;;;;5058846;28;20117;-64
2023/08/03 10:39:00;;;;;;;7.35;2.47;;;16.20;79.20;;;;;;5067253;28;20103;-65
2023/08/03 10:41:30;;;;;;;7.10;2.63;;;16.20;79.20;;;;;;5068491;28;20028;-64
2023/08/03 10:44:10;;;;;;;10.25;2.85;;;16.20;79.20;;;;;;5066490;28;20032;-70
2023/08/03 10:46:40;;;;;;;;;;;16.20;79.40;;;;;;5056903;28;20475;-65
2023/08/03 11:39:09;;;;;;;10.18;3.08;;;15.60;80.50;;;;;;5058484;28;20052;-65
2023/08/03 11:41:36;;;;;;;11.57;3.17;;;15.60;80.70;;;;;;5044611;28;20053;-65
2023/08/03 11:44:06;;;;;;;10.00;3.55;;;15.60;80.60;;;;;;5029714;28;20116;-65
2023/08/03 11:46:33;;;;;;;13.20;3.20;;;15.50;80.70;;;;;;5031149;28;20033;-64
2023/08/03 11:49:02;;;;;;;9.10;2.92;;;15.50;80.80;;;;;;5045637;28;20147;-64
2023/08/03 11:51:38;;;;;;;10.10;3.15;;;15.50;80.70;;;;;;5049255;28;20052;-65
2023/08/03 11:54:07;;;;;;;10.25;3.08;;;15.50;80.70;;;;;;5048737;28;20037;-65
2023/08/03 11:56:40;;;;;;;7.13;2.70;;;15.60;80.50;;;;;;5048374;28;20090;-64
2023/08/03 11:59:10;;;;;;;7.45;2.70;;;15.50;80.30;;;;;;5037914;28;20040;-65
2023/08/03 12:01:47;;;;;;;7.40;2.33;;;15.60;80.20;;;;;;5049187;28;20025;-65
2023/08/03 12:04:14;;;;;;;9.52;2.97;;;15.50;80.10;;;;;;5030779;28;20045;-65
2023/08/03 12:06:54;;;;;;;6.63;2.50;;;15.60;80.10;;;;;;5031342;28;20053;-65
2023/08/03 12:09:26;;;;;;;9.52;2.50;;;15.60;80.10;;;;;;5028725;28;20080;-65
2023/08/03 12:12:05;;;;;;;8.63;2.65;;;15.60;79.90;;;;;;5047788;28;20049;-65
2023/08/03 12:14:33;;;;;;;8.95;2.70;;;15.60;80.00;;;;;;5049320;28;20036;-66
2023/08/03 12:17:00;;;;;;;6.93;2.38;;;15.60;79.80;;;;;;5051440;28;20120;-66
2023/08/03 12:19:32;;;;;;;9.93;2.53;;;15.70;79.80;;;;;;5051771;28;20033;-65
2023/08/03 12:22:03;;;;;;;8.52;2.70;;;15.60;79.80;;;;;;5016171;28;20447;-65
2023/08/03 12:24:31;;;;;;;12.25;3.10;;;15.70;79.90;;;;;;5049913;28;20033;-65
2023/08/03 12:26:58;;;;;;;6.97;2.58;;;15.70;79.80;;;;;;5033859;28;20114;-65
2023/08/03 12:29:25;;;;;;;10.07;3.03;;;15.60;79.80;;;;;;5050175;28;20052;-66
2023/08/03 12:31:53;;;;;;;8.52;2.55;;;15.60;79.70;;;;;;5050523;28;21211;-66
2023/08/03 12:34:20;;;;;;;7.05;2.30;;;15.60;79.80;;;;;;5051382;28;20517;-65
2023/08/03 12:36:47;;;;;;;8.95;2.45;;;15.60;79.70;;;;;;5033579;28;20064;-65
2023/08/03 12:39:17;;;;;;;8.20;2.65;;;15.50;79.90;;;;;;5035120;28;20068;-65
2023/08/03 12:41:46;;;;;;;6.57;2.47;;;15.50;79.90;;;;;;5070070;28;20043;-66
2023/08/03 12:44:13;;;;;;;6.85;2.30;;;15.50;80.00;;;;;;5069583;28;20043;-68
2023/08/03 12:46:40;;;;;;;10.18;2.45;;;15.50;80.10;;;;;;5069703;28;20040;-67
2023/08/03 12:49:07;;;;;;;8.32;2.40;;;15.50;80.20;;;;;;5049330;28;20094;-66
2023/08/03 12:51:37;;;;;;;11.52;2.67;;;15.50;80.30;;;;;;5063251;28;20054;-66
2023/08/03 12:54:05;;;;;;;7.97;2.33;;;15.50;80.40;;;;;;5070044;28;20402;-66
2023/08/03 12:56:36;;;;;;;5.40;1.90;;;15.40;80.40;;;;;;5069927;28;20029;-65
2023/08/03 12:59:03;;;;;;;;;;;15.40;80.50;;;;;;5072323;28;20032;-65
2023/08/03 13:01:31;;;;;;;6.57;2.25;;;15.30;81.00;;;;;;5070600;28;20342;-66
2023/08/03 13:03:58;;;;;;;6.63;2.50;;;15.40;81.10;;;;;;5071281;28;20040;-65
2023/08/03 13:06:25;;;;;;;7.43;2.42;;;15.40;81.20;;;;;;5070334;28;20060;-65
2023/08/03 13:08:52;;;;;;;6.93;2.20;;;15.40;81.20;;;;;;5071423;28;20398;-65
2023/08/03 13:11:20;;;;;;;8.98;2.50;;;15.30;81.40;;;;;;5071824;28;20035;-65
2023/08/03 13:13:47;;;;;;;11.43;2.78;;;15.30;81.40;;;;;;5070328;28;20474;-65
2023/08/03 13:16:15;;;;;;;7.90;2.42;;;15.30;81.60;;;;;;5071242;28;20028;-65
2023/08/03 13:18:42;;;;;;;13.93;2.92;;;15.20;81.80;;;;;;5060692;28;20037;-67
2023/08/03 13:21:12;;;;;;;7.10;2.30;;;15.20;82.00;;;;;;5072847;28;20115;-67
2023/08/03 13:23:39;;;;;;;17.45;2.50;;;15.20;82.20;;;;;;5072300;28;20032;-66
2023/08/03 13:26:06;;;;;;;11.38;2.65;;;15.20;82.20;;;;;;5060503;28;20033;-66
2023/08/03 13:28:34;;;;;;;8.63;2.20;;;15.20;82.30;;;;;;5052218;28;20094;-66
2023/08/03 13:31:01;;;;;;;9.40;2.72;;;15.20;82.20;;;;;;5068945;28;20068;-66
2023/08/03 13:33:28;;;;;;;6.38;2.30;;;15.10;82.30;;;;;;5064941;28;20109;-66
2023/08/03 13:35:56;;;;;;;7.72;2.78;;;15.10;82.60;;;;;;5070116;28;20541;-66
2023/08/03 13:38:25;;;;;;;7.18;2.40;;;15.00;82.60;;;;;;5069998;28;20041;-66
2023/08/03 13:40:52;;;;;;;7.93;2.30;;;15.00;82.80;;;;;;5066184;28;20083;-66
2023/08/03 13:43:19;;;;;;;7.13;2.67;;;14.90;82.90;;;;;;5068443;28;20046;-66
2023/08/03 13:45:46;;;;;;;5.07;2.42;;;14.90;82.90;;;;;;5069327;28;20036;-66
2023/08/03 13:48:14;;;;;;;11.70;2.47;;;14.80;83.10;;;;;;5068714;28;20081;-66
2023/08/03 13:50:41;;;;;;;10.88;3.00;;;14.80;83.20;;;;;;5073257;28;20071;-66
2023/08/03 13:53:08;;;;;;;11.57;2.65;;;14.80;83.30;;;;;;5073507;28;20058;-66
2023/08/03 13:55:35;;;;;;;10.15;2.78;;;14.80;83.20;;;;;;5072664;28;20524;-66
2023/08/03 13:58:03;;;;;;;9.68;2.75;;;14.80;83.30;;;;;;5071422;28;20025;-66
2023/08/03 14:00:33;;;;;;;11.93;2.70;;;14.80;83.30;;;;;;5054458;28;20116;-66
2023/08/03 14:03:02;;;;;;;;;;;14.80;83.30;;;;;;5056011;28;20402;-65
2023/08/03 14:05:30;;;;;;;7.20;2.65;;;14.80;83.30;;;;;;5073257;28;19984;-66
2023/08/03 14:07:57;;;;;;;9.80;2.92;;;14.80;83.40;;;;;;5072699;28;20340;-65
2023/08/03 14:10:24;;;;;;;5.95;2.60;;;14.80;83.50;;;;;;5070796;28;20075;-65
2023/08/03 14:12:52;;;;;;;15.75;3.33;;;14.70;83.50;;;;;;5059290;28;20071;-65
2023/08/03 14:15:21;;;;;;;6.63;2.60;;;14.70;83.40;;;;;;5072613;28;20375;-66
2023/08/03 14:17:49;;;;;;;7.28;2.92;;;14.70;83.30;;;;;;5070429;28;20123;-65
2023/08/03 14:20:19;;;;;;;8.43;2.78;;;14.60;83.20;;;;;;5088542;28;20040;-65
2023/08/03 14:22:46;;;;;;;7.20;2.90;;;14.60;83.30;;;;;;5055475;28;20025;-66
2023/08/03 14:25:15;;;;;;;9.98;3.25;;;14.60;83.30;;;;;;5072967;28;20486;-65
2023/08/03 14:27:46;;;;;;;7.60;3.38;;;14.50;83.20;;;;;;5072182;28;20043;-66
2023/08/03 14:30:15;;;;;;;11.02;3.10;;;14.40;83.50;;;;;;5072877;28;20045;-65
2023/08/03 14:55:57;;;;;;;10.48;3.40;;;14.10;84.50;;;;;;5067568;28;20055;-65
2023/08/03 14:58:24;;;;;;;9.18;3.60;;;14.10;84.30;;;;;;5070864;28;20486;-67
2023/08/03 15:00:52;;;;;;;8.30;3.08;;;14.10;84.20;;;;;;5071336;28;20033;-66
2023/08/03 15:03:19;;;;;;;9.68;3.80;;;14.00;84.30;;;;;;5054006;28;20036;-66
2023/08/03 15:05:46;;;;;;;8.43;3.30;;;13.90;84.40;;;;;;5072060;28;20060;-66
2023/08/03 15:08:16;;;;;;;9.52;3.20;;;13.90;84.70;;;;;;5070116;28;20028;-65
2023/08/03 15:10:43;;;;;;;10.80;3.55;;;13.90;84.80;;;;;;5070628;28;20043;-66
2023/08/03 15:13:11;;;;;;;7.13;3.13;;;13.90;84.90;;;;;;5072145;28;20028;-66
2023/08/03 15:15:38;;;;;;;10.55;3.78;;;13.90;84.90;;;;;;5051232;28;20386;-66
2023/08/03 15:18:05;;;;;;;11.57;3.75;;;13.80;84.80;;;;;;5056636;28;20032;-66
2023/08/03 15:20:33;;;;;;;7.85;3.50;;;13.90;84.80;;;;;;5070823;28;20044;-66
2023/08/03 15:23:00;;;;;;;12.60;4.55;;;13.80;84.70;;;;;;5071448;28;20116;-66
2023/08/03 15:25:27;;;;;;;8.80;3.72;;;13.80;85.00;;;;;;5072192;28;20068;-66
2023/08/03 15:27:55;;;;;;;10.07;3.90;;;13.70;84.90;;;;;;5051947;28;20049;-65
2023/08/03 15:30:23;;;;;;;12.65;4.40;;;13.70;84.90;;;;;;5052306;28;20037;-66
2023/08/03 15:32:50;;;;;;;11.30;4.32;;;13.70;85.00;;;;;;5052123;28;20033;-66
2023/08/03 15:35:19;;;;;;;13.82;4.40;;;13.70;84.90;;;;;;5052206;28;20659;-66
2023/08/03 15:37:50;;;;;;;11.52;4.20;;;13.70;84.60;;;;;;5065257;28;20036;-65
2023/08/03 15:40:17;;;;;;;13.57;4.30;;;13.70;84.70;;;;;;5071288;28;20135;-66
2023/08/03 15:42:44;;;;;;;12.38;4.70;;;13.70;84.60;;;;;;5053745;28;20032;-66
2023/08/03 15:45:11;;;;;;;15.07;4.10;;;13.60;84.60;;;;;;5070201;28;20110;-65
2023/08/03 15:47:38;;;;;;;9.90;4.22;;;13.60;84.60;;;;;;5069926;28;20504;-66
2023/08/03 15:50:07;;;;;;;10.90;4.47;;;13.60;84.60;;;;;;5072642;28;20064;-65
2023/08/03 15:52:35;;;;;;;8.88;4.43;;;13.50;84.80;;;;;;5076295;28;20029;-66
2023/08/03 15:55:02;;;;;;;14.15;4.70;;;13.50;84.70;;;;;;5075151;28;20040;-65
2023/08/03 15:57:29;;;;;;;11.60;4.45;;;13.40;84.70;;;;;;5075966;28;20024;-66
2023/08/03 15:59:57;;;;;;;8.48;4.20;;;13.40;84.40;;;;;;5075855;28;20028;-66
2023/08/03 16:02:24;;;;;;;12.25;4.28;;;13.40;84.40;;;;;;5075080;28;20044;-66
2023/08/03 16:04:52;;;;;;;10.65;4.47;;;13.30;84.20;;;;;;5074456;28;20025;-66
2023/08/03 16:07:19;;;;;;;7.55;4.35;;;13.40;84.20;;;;;;5074233;28;20032;-66
2023/08/03 16:09:50;;;;;;;11.38;5.00;;;13.30;84.30;;;;;;5090619;28;20036;-66
2023/08/03 16:12:17;;;;;;;7.07;3.75;;;13.30;84.40;;;;;;5075512;28;20028;-66
2023/08/03 16:14:45;;;;;;;9.60;4.47;;;13.30;84.40;;;;;;5075390;28;20037;-66
2023/08/03 16:17:12;;;;;;;11.15;4.65;;;13.30;84.20;;;;;;5074255;28;20033;-66
2023/08/03 16:19:40;;;;;;;10.32;4.47;;;13.30;84.00;;;;;;5074192;28;20052;-66
2023/08/03 16:22:07;;;;;;;10.93;4.50;;;13.20;84.00;;;;;;5073827;28;20491;-66
2023/08/03 16:24:34;;;;;;;11.75;4.95;;;13.30;84.00;;;;;;5075407;28;20425;-66
2023/08/03 16:27:02;;;;;;;14.93;4.93;;;13.20;84.10;;;;;;5074786;28;20028;-65
2023/08/03 16:29:29;;;;;;;8.77;4.15;;;13.20;83.90;;;;;;5075071;28;20052;-66
2023/08/03 16:31:56;;;;;;;14.35;5.20;;;13.10;84.40;;;;;;5075341;28;20086;-66
2023/08/03 16:34:24;;;;;;;14.68;5.00;;;13.10;84.30;;;;;;5074573;28;20028;-66
2023/08/03 16:36:51;;;;;;;10.57;4.93;;;13.00;84.40;;;;;;5072620;28;20028;-65
2023/08/03 16:39:18;;;;;;;14.30;4.93;;;13.00;84.40;;;;;;5075371;28;20059;-66
2023/08/03 18:29:32;;;;;;;15.55;5.85;;;12.30;87.90;;;;;;5050970;28;20055;-65
2023/08/03 18:32:00;;;;;;;16.05;6.25;;;12.30;88.20;;;;;;5051841;28;20515;-65
2023/08/03 18:34:27;;;;;;;11.00;5.63;;;12.30;88.20;;;;;;5052044;28;20029;-66
2023/08/03 18:36:54;;;;;;;16.67;6.28;;;12.30;88.00;;;;;;5050651;28;20475;-65
2023/08/03 18:39:21;;;;;;;15.45;6.13;;;12.30;88.00;;;;;;5052805;28;20091;-65
2023/08/03 18:41:49;;;;;;;19.02;7.28;;;12.30;88.00;;;;;;5068093;28;20544;-66
2023/08/03 18:44:16;;;;;;;16.23;6.53;;;12.20;87.90;;;;;;5052579;28;20094;-66
2023/08/03 18:46:43;;;;;;;16.98;5.88;;;12.20;87.90;;;;;;5051874;28;20169;-66
2023/08/03 18:49:12;;;;;;;11.50;6.10;;;12.20;87.90;;;;;;5048097;28;20513;-66
2023/08/03 18:51:39;;;;;;;12.65;6.30;;;12.20;87.60;;;;;;5052010;28;20458;-66
2023/08/03 18:54:06;;;;;;;15.65;6.25;;;12.20;87.90;;;;;;5050833;28;20048;-66
2023/08/03 18:56:33;;;;;;;14.32;6.03;;;12.20;88.00;;;;;;5051961;28;20029;-66
2023/08/03 18:59:00;;;;;;;11.57;5.50;;;12.20;88.10;;;;;;5052635;28;20471;-65
2023/08/03 19:01:30;;;;;;;12.10;5.70;;;12.20;88.10;;;;;;5050582;28;20040;-65
2023/08/03 19:03:58;;;;;;;11.68;5.75;;;12.10;88.10;;;;;;5059565;28;20448;-65
2023/08/03 19:06:29;;;;;;;14.13;6.07;;;12.10;88.20;;;;;;5033813;28;20068;-65
2023/08/03 19:08:56;;;;;;;12.88;5.70;;;12.20;88.30;;;;;;5066369;28;20040;-67
2023/08/03 19:11:23;;;;;;;16.80;6.40;;;12.20;88.40;;;;;;5050631;28;20119;-67
2023/08/03 19:13:50;;;;;;;15.98;6.35;;;12.20;88.20;;;;;;5052057;28;20029;-68
2023/08/03 19:16:18;;;;;;;15.68;5.95;;;12.20;88.20;;;;;;5052052;28;20036;-67
2023/08/03 19:18:45;;;;;;;13.57;5.90;;;12.20;88.40;;;;;;5049478;28;20383;-68
2023/08/03 19:21:12;;;;;;;10.40;5.60;;;12.20;88.30;;;;;;5052176;28;20036;-67
2023/08/03 19:23:39;;;;;;;14.27;6.05;;;12.20;88.30;;;;;;5032076;28;20045;-68
2023/08/03 19:26:09;;;;;;;16.52;6.38;;;12.20;88.20;;;;;;5031067;28;20048;-67